sensor_id;sensor_type;location;lat;lon;timestamp;temperature;humidity
67186;HTU21D;54116;53.518;49.398;2022-11-13T00:01:24;7.37;118.60
67186;HTU21D;54116;53.518;49.398;2022-11-13T00:03:51;7.32;118.65
67186;HTU21D;54116;53.518;49.398;2022-11-13T00:06:18;7.33;118.28
67186;HTU21D;54116;53.518;49.398;2022-11-13T00:08:45;7.28;117.86
67186;HTU21D;54116;53.518;49.398;2022-11-13T00:11:14;7.38;118.28
67186;HTU21D;54116;53.518;49.398;2022-11-13T00:13:40;7.39;118.28
67186;HTU21D;54116;53.518;49.398;2022-11-13T00:16:11;7.48;118.39
67186;HTU21D;54116;53.518;49.398;2022-11-13T00:18:38;7.56;118.22
67186;HTU21D;54116;53.518;49.398;2022-11-13T00:21:15;7.61;118.14
67186;HTU21D;54116;53.518;49.398;2022-11-13T00:23:42;7.72;117.47
67186;HTU21D;54116;53.518;49.398;2022-11-13T00:26:14;7.70;115.86
67186;HTU21D;54116;53.518;49.398;2022-11-13T00:28:41;7.67;115.32
67186;HTU21D;54116;53.518;49.398;2022-11-13T00:31:08;7.68;113.81
67186;HTU21D;54116;53.518;49.398;2022-11-13T00:33:35;7.63;114.27
67186;HTU21D;54116;53.518;49.398;2022-11-13T00:36:14;7.65;112.61
67186;HTU21D;54116;53.518;49.398;2022-11-13T00:38:40;7.63;112.75
67186;HTU21D;54116;53.518;49.398;2022-11-13T00:41:06;7.56;109.81
67186;HTU21D;54116;53.518;49.398;2022-11-13T00:43:32;7.63;108.37
67186;HTU21D;54116;53.518;49.398;2022-11-13T00:45:58;7.73;107.57
67186;HTU21D;54116;53.518;49.398;2022-11-13T00:48:24;7.64;107.76
67186;HTU21D;54116;53.518;49.398;2022-11-13T00:50:50;7.67;107.82
67186;HTU21D;54116;53.518;49.398;2022-11-13T00:53:16;7.68;107.31
67186;HTU21D;54116;53.518;49.398;2022-11-13T00:55:43;7.70;107.57
67186;HTU21D;54116;53.518;49.398;2022-11-13T00:58:11;7.60;107.12
67186;HTU21D;54116;53.518;49.398;2022-11-13T01:00:37;7.61;106.65
67186;HTU21D;54116;53.518;49.398;2022-11-13T01:03:03;7.57;106.64
67186;HTU21D;54116;53.518;49.398;2022-11-13T01:05:30;7.63;107.31
67186;HTU21D;54116;53.518;49.398;2022-11-13T01:07:59;7.62;107.16
67186;HTU21D;54116;53.518;49.398;2022-11-13T01:10:25;7.61;106.73
67186;HTU21D;54116;53.518;49.398;2022-11-13T01:12:51;7.56;107.63
67186;HTU21D;54116;53.518;49.398;2022-11-13T01:15:17;7.61;106.47
67186;HTU21D;54116;53.518;49.398;2022-11-13T01:17:43;7.55;106.35
67186;HTU21D;54116;53.518;49.398;2022-11-13T01:20:10;7.52;107.98
67186;HTU21D;54116;53.518;49.398;2022-11-13T01:22:36;7.54;107.18
67186;HTU21D;54116;53.518;49.398;2022-11-13T01:25:03;7.62;106.55
67186;HTU21D;54116;53.518;49.398;2022-11-13T01:27:29;7.67;106.59
67186;HTU21D;54116;53.518;49.398;2022-11-13T01:29:55;7.65;107.24
67186;HTU21D;54116;53.518;49.398;2022-11-13T01:32:21;7.64;106.69
67186;HTU21D;54116;53.518;49.398;2022-11-13T01:34:47;7.61;106.65
67186;HTU21D;54116;53.518;49.398;2022-11-13T01:37:13;7.65;107.04
67186;HTU21D;54116;53.518;49.398;2022-11-13T01:39:39;7.62;106.97
67186;HTU21D;54116;53.518;49.398;2022-11-13T01:42:05;7.64;106.34
67186;HTU21D;54116;53.518;49.398;2022-11-13T01:44:53;7.70;106.47
67186;HTU21D;54116;53.518;49.398;2022-11-13T01:47:21;7.72;107.39
67186;HTU21D;54116;53.518;49.398;2022-11-13T01:49:50;7.81;105.46
67186;HTU21D;54116;53.518;49.398;2022-11-13T01:55:11;7.83;103.74
67186;HTU21D;54116;53.518;49.398;2022-11-13T01:57:38;7.83;102.89
67186;HTU21D;54116;53.518;49.398;2022-11-13T02:00:08;7.89;102.30
67186;HTU21D;54116;53.518;49.398;2022-11-13T02:02:34;7.92;101.37
67186;HTU21D;54116;53.518;49.398;2022-11-13T02:05:01;8.02;100.67
67186;HTU21D;54116;53.518;49.398;2022-11-13T02:07:27;7.98;99.40
67186;HTU21D;54116;53.518;49.398;2022-11-13T02:09:55;8.06;97.96
67186;HTU21D;54116;53.518;49.398;2022-11-13T02:12:42;8.06;98.51
67186;HTU21D;54116;53.518;49.398;2022-11-13T02:15:09;8.08;97.00
67186;HTU21D;54116;53.518;49.398;2022-11-13T02:17:41;8.11;94.96
67186;HTU21D;54116;53.518;49.398;2022-11-13T02:20:08;8.21;92.95
67186;HTU21D;54116;53.518;49.398;2022-11-13T02:22:40;8.19;94.26
67186;HTU21D;54116;53.518;49.398;2022-11-13T02:25:10;8.13;93.23
67186;HTU21D;54116;53.518;49.398;2022-11-13T02:27:44;8.21;90.95
67186;HTU21D;54116;53.518;49.398;2022-11-13T02:30:17;8.20;89.21
67186;HTU21D;54116;53.518;49.398;2022-11-13T02:32:48;8.15;91.82
67186;HTU21D;54116;53.518;49.398;2022-11-13T02:35:16;8.17;91.13
67186;HTU21D;54116;53.518;49.398;2022-11-13T02:37:43;8.07;91.69
67186;HTU21D;54116;53.518;49.398;2022-11-13T02:40:10;8.13;90.95
67186;HTU21D;54116;53.518;49.398;2022-11-13T02:42:36;8.08;89.76
67186;HTU21D;54116;53.518;49.398;2022-11-13T02:45:03;8.07;90.66
67186;HTU21D;54116;53.518;49.398;2022-11-13T02:47:30;8.11;91.56
67186;HTU21D;54116;53.518;49.398;2022-11-13T02:49:56;8.01;92.14
67186;HTU21D;54116;53.518;49.398;2022-11-13T02:52:22;8.04;91.95
67186;HTU21D;54116;53.518;49.398;2022-11-13T02:54:48;8.02;92.21
67186;HTU21D;54116;53.518;49.398;2022-11-13T02:57:14;8.02;91.53
67186;HTU21D;54116;53.518;49.398;2022-11-13T02:59:41;8.04;88.25
67186;HTU21D;54116;53.518;49.398;2022-11-13T03:02:07;8.12;90.37
67186;HTU21D;54116;53.518;49.398;2022-11-13T03:04:33;8.17;88.80
67186;HTU21D;54116;53.518;49.398;2022-11-13T03:06:59;8.11;88.80
67186;HTU21D;54116;53.518;49.398;2022-11-13T03:09:25;8.02;87.16
67186;HTU21D;54116;53.518;49.398;2022-11-13T03:11:51;8.04;88.71
67186;HTU21D;54116;53.518;49.398;2022-11-13T03:14:17;8.07;86.21
67186;HTU21D;54116;53.518;49.398;2022-11-13T03:16:43;8.09;86.19
67186;HTU21D;54116;53.518;49.398;2022-11-13T03:19:09;8.12;86.70
67186;HTU21D;54116;53.518;49.398;2022-11-13T03:21:35;8.06;87.10
67186;HTU21D;54116;53.518;49.398;2022-11-13T03:24:01;8.03;86.13
67186;HTU21D;54116;53.518;49.398;2022-11-13T03:26:27;8.07;88.37
67186;HTU21D;54116;53.518;49.398;2022-11-13T03:28:54;7.97;88.45
67186;HTU21D;54116;53.518;49.398;2022-11-13T03:31:20;7.93;88.05
67186;HTU21D;54116;53.518;49.398;2022-11-13T03:33:46;7.93;88.03
67186;HTU21D;54116;53.518;49.398;2022-11-13T03:36:13;7.97;88.71
67186;HTU21D;54116;53.518;49.398;2022-11-13T03:38:39;7.94;88.99
67186;HTU21D;54116;53.518;49.398;2022-11-13T03:41:05;7.97;90.18
67186;HTU21D;54116;53.518;49.398;2022-11-13T03:43:31;7.92;90.02
67186;HTU21D;54116;53.518;49.398;2022-11-13T03:45:57;7.97;89.33
67186;HTU21D;54116;53.518;49.398;2022-11-13T03:48:23;7.97;89.40
67186;HTU21D;54116;53.518;49.398;2022-11-13T03:50:53;8.00;89.37
67186;HTU21D;54116;53.518;49.398;2022-11-13T03:53:19;7.96;89.98
67186;HTU21D;54116;53.518;49.398;2022-11-13T03:55:46;8.04;87.93
67186;HTU21D;54116;53.518;49.398;2022-11-13T03:58:13;8.03;87.37
67186;HTU21D;54116;53.518;49.398;2022-11-13T04:00:40;8.05;87.06
67186;HTU21D;54116;53.518;49.398;2022-11-13T04:03:06;8.00;87.32
67186;HTU21D;54116;53.518;49.398;2022-11-13T04:05:33;8.07;84.23
67186;HTU21D;54116;53.518;49.398;2022-11-13T04:07:59;8.07;85.21
67186;HTU21D;54116;53.518;49.398;2022-11-13T04:10:29;8.12;83.07
67186;HTU21D;54116;53.518;49.398;2022-11-13T04:12:55;8.12;82.62
67186;HTU21D;54116;53.518;49.398;2022-11-13T04:15:21;8.08;83.94
67186;HTU21D;54116;53.518;49.398;2022-11-13T04:17:48;8.00;84.93
67186;HTU21D;54116;53.518;49.398;2022-11-13T04:20:15;7.96;86.18
67186;HTU21D;54116;53.518;49.398;2022-11-13T04:22:41;7.89;85.67
67186;HTU21D;54116;53.518;49.398;2022-11-13T04:25:08;7.90;86.10
67186;HTU21D;54116;53.518;49.398;2022-11-13T04:27:34;7.92;87.16
67186;HTU21D;54116;53.518;49.398;2022-11-13T04:30:01;7.86;88.73
67186;HTU21D;54116;53.518;49.398;2022-11-13T04:32:27;7.78;87.97
67186;HTU21D;54116;53.518;49.398;2022-11-13T04:34:53;7.79;87.85
67186;HTU21D;54116;53.518;49.398;2022-11-13T04:37:19;7.82;86.12
67186;HTU21D;54116;53.518;49.398;2022-11-13T04:39:45;7.85;86.58
67186;HTU21D;54116;53.518;49.398;2022-11-13T04:42:11;7.88;86.67
67186;HTU21D;54116;53.518;49.398;2022-11-13T04:44:55;7.91;84.40
67186;HTU21D;54116;53.518;49.398;2022-11-13T04:47:22;7.93;86.03
67186;HTU21D;54116;53.518;49.398;2022-11-13T04:49:48;7.88;86.01
67186;HTU21D;54116;53.518;49.398;2022-11-13T04:52:14;7.85;84.37
67186;HTU21D;54116;53.518;49.398;2022-11-13T04:54:40;7.87;85.67
67186;HTU21D;54116;53.518;49.398;2022-11-13T04:57:06;7.84;84.97
67186;HTU21D;54116;53.518;49.398;2022-11-13T04:59:32;7.87;84.09
67186;HTU21D;54116;53.518;49.398;2022-11-13T05:01:58;7.87;83.71
67186;HTU21D;54116;53.518;49.398;2022-11-13T05:04:24;7.82;84.28
67186;HTU21D;54116;53.518;49.398;2022-11-13T05:06:50;7.84;84.90
67186;HTU21D;54116;53.518;49.398;2022-11-13T05:09:16;7.83;84.58
67186;HTU21D;54116;53.518;49.398;2022-11-13T05:11:42;7.77;84.84
67186;HTU21D;54116;53.518;49.398;2022-11-13T05:14:11;7.83;84.32
67186;HTU21D;54116;53.518;49.398;2022-11-13T05:16:37;7.76;84.30
67186;HTU21D;54116;53.518;49.398;2022-11-13T05:19:04;7.73;85.86
67186;HTU21D;54116;53.518;49.398;2022-11-13T05:21:38;7.70;85.89
67186;HTU21D;54116;53.518;49.398;2022-11-13T05:24:04;7.74;84.79
67186;HTU21D;54116;53.518;49.398;2022-11-13T05:26:30;7.77;84.42
67186;HTU21D;54116;53.518;49.398;2022-11-13T05:28:58;7.78;85.00
67186;HTU21D;54116;53.518;49.398;2022-11-13T05:31:25;7.81;85.03
67186;HTU21D;54116;53.518;49.398;2022-11-13T05:33:51;7.79;84.29
67186;HTU21D;54116;53.518;49.398;2022-11-13T05:36:18;7.90;83.31
67186;HTU21D;54116;53.518;49.398;2022-11-13T05:38:45;7.98;84.42
67186;HTU21D;54116;53.518;49.398;2022-11-13T05:41:16;7.98;83.84
67186;HTU21D;54116;53.518;49.398;2022-11-13T05:43:43;8.02;84.21
67186;HTU21D;54116;53.518;49.398;2022-11-13T05:46:12;8.00;83.41
67186;HTU21D;54116;53.518;49.398;2022-11-13T05:48:40;7.97;83.04
67186;HTU21D;54116;53.518;49.398;2022-11-13T05:51:09;8.03;84.58
67186;HTU21D;54116;53.518;49.398;2022-11-13T05:53:36;8.05;85.21
67186;HTU21D;54116;53.518;49.398;2022-11-13T05:56:09;8.06;82.00
67186;HTU21D;54116;53.518;49.398;2022-11-13T05:58:36;8.07;82.75
67186;HTU21D;54116;53.518;49.398;2022-11-13T06:03:32;8.03;82.46
67186;HTU21D;54116;53.518;49.398;2022-11-13T06:05:59;8.05;83.15
67186;HTU21D;54116;53.518;49.398;2022-11-13T06:08:25;8.04;83.53
67186;HTU21D;54116;53.518;49.398;2022-11-13T06:10:52;8.02;82.30
67186;HTU21D;54116;53.518;49.398;2022-11-13T06:13:18;8.08;83.76
67186;HTU21D;54116;53.518;49.398;2022-11-13T06:15:44;8.16;84.03
67186;HTU21D;54116;53.518;49.398;2022-11-13T06:18:10;8.20;83.12
67186;HTU21D;54116;53.518;49.398;2022-11-13T06:20:36;8.20;82.46
67186;HTU21D;54116;53.518;49.398;2022-11-13T06:23:02;8.22;82.87
67186;HTU21D;54116;53.518;49.398;2022-11-13T06:25:29;8.16;82.01
67186;HTU21D;54116;53.518;49.398;2022-11-13T06:27:55;8.14;84.52
67186;HTU21D;54116;53.518;49.398;2022-11-13T06:30:21;8.13;83.84
67186;HTU21D;54116;53.518;49.398;2022-11-13T06:32:54;8.12;83.58
67186;HTU21D;54116;53.518;49.398;2022-11-13T06:35:20;8.05;83.90
67186;HTU21D;54116;53.518;49.398;2022-11-13T06:37:46;8.02;84.66
67186;HTU21D;54116;53.518;49.398;2022-11-13T06:40:12;7.99;83.13
67186;HTU21D;54116;53.518;49.398;2022-11-13T06:42:38;8.00;84.04
67186;HTU21D;54116;53.518;49.398;2022-11-13T06:45:05;8.01;84.25
67186;HTU21D;54116;53.518;49.398;2022-11-13T06:47:31;8.04;84.52
67186;HTU21D;54116;53.518;49.398;2022-11-13T06:49:57;8.07;84.21
67186;HTU21D;54116;53.518;49.398;2022-11-13T06:52:23;8.12;84.08
67186;HTU21D;54116;53.518;49.398;2022-11-13T06:54:49;8.07;82.55
67186;HTU21D;54116;53.518;49.398;2022-11-13T06:57:15;8.03;83.10
67186;HTU21D;54116;53.518;49.398;2022-11-13T06:59:41;8.04;83.11
67186;HTU21D;54116;53.518;49.398;2022-11-13T07:02:10;7.99;83.00
67186;HTU21D;54116;53.518;49.398;2022-11-13T07:04:36;7.96;81.96
67186;HTU21D;54116;53.518;49.398;2022-11-13T07:07:02;7.93;82.81
67186;HTU21D;54116;53.518;49.398;2022-11-13T07:09:30;7.93;83.20
67186;HTU21D;54116;53.518;49.398;2022-11-13T07:11:56;7.89;82.10
67186;HTU21D;54116;53.518;49.398;2022-11-13T07:14:22;7.88;82.46
67186;HTU21D;54116;53.518;49.398;2022-11-13T07:16:48;7.90;83.29
67186;HTU21D;54116;53.518;49.398;2022-11-13T07:19:14;7.86;83.70
67186;HTU21D;54116;53.518;49.398;2022-11-13T07:21:40;7.88;83.48
67186;HTU21D;54116;53.518;49.398;2022-11-13T07:24:07;7.91;83.32
67186;HTU21D;54116;53.518;49.398;2022-11-13T07:26:33;7.93;82.97
67186;HTU21D;54116;53.518;49.398;2022-11-13T07:28:59;8.04;82.24
67186;HTU21D;54116;53.518;49.398;2022-11-13T07:31:25;8.13;84.16
67186;HTU21D;54116;53.518;49.398;2022-11-13T07:33:51;8.17;83.65
67186;HTU21D;54116;53.518;49.398;2022-11-13T07:36:17;8.18;82.25
67186;HTU21D;54116;53.518;49.398;2022-11-13T07:38:43;8.09;82.42
67186;HTU21D;54116;53.518;49.398;2022-11-13T07:41:09;8.04;82.34
67186;HTU21D;54116;53.518;49.398;2022-11-13T07:43:36;8.03;83.44
67186;HTU21D;54116;53.518;49.398;2022-11-13T07:46:02;8.01;83.60
67186;HTU21D;54116;53.518;49.398;2022-11-13T07:48:28;8.07;83.78
67186;HTU21D;54116;53.518;49.398;2022-11-13T07:50:57;8.20;82.52
67186;HTU21D;54116;53.518;49.398;2022-11-13T07:53:24;8.27;82.13
67186;HTU21D;54116;53.518;49.398;2022-11-13T07:55:50;8.31;82.29
67186;HTU21D;54116;53.518;49.398;2022-11-13T07:58:16;8.32;81.92
67186;HTU21D;54116;53.518;49.398;2022-11-13T08:00:42;8.29;81.28
67186;HTU21D;54116;53.518;49.398;2022-11-13T08:03:11;8.26;81.29
67186;HTU21D;54116;53.518;49.398;2022-11-13T08:05:38;8.23;82.68
67186;HTU21D;54116;53.518;49.398;2022-11-13T08:08:04;8.28;81.78
67186;HTU21D;54116;53.518;49.398;2022-11-13T08:10:31;8.26;82.39
67186;HTU21D;54116;53.518;49.398;2022-11-13T08:13:01;8.29;81.49
67186;HTU21D;54116;53.518;49.398;2022-11-13T08:15:29;8.28;81.35
67186;HTU21D;54116;53.518;49.398;2022-11-13T08:17:56;8.32;80.92
67186;HTU21D;54116;53.518;49.398;2022-11-13T08:20:24;8.28;79.60
67186;HTU21D;54116;53.518;49.398;2022-11-13T08:22:50;8.22;79.87
67186;HTU21D;54116;53.518;49.398;2022-11-13T08:25:17;8.36;79.88
67186;HTU21D;54116;53.518;49.398;2022-11-13T08:27:43;8.37;79.18
67186;HTU21D;54116;53.518;49.398;2022-11-13T08:30:10;8.44;78.76
67186;HTU21D;54116;53.518;49.398;2022-11-13T08:32:36;8.42;78.34
67186;HTU21D;54116;53.518;49.398;2022-11-13T08:35:02;8.41;78.67
67186;HTU21D;54116;53.518;49.398;2022-11-13T08:37:28;8.35;78.62
67186;HTU21D;54116;53.518;49.398;2022-11-13T08:39:54;8.31;79.03
67186;HTU21D;54116;53.518;49.398;2022-11-13T08:42:20;8.35;80.06
67186;HTU21D;54116;53.518;49.398;2022-11-13T08:44:47;8.36;79.41
67186;HTU21D;54116;53.518;49.398;2022-11-13T08:47:13;8.36;80.69
67186;HTU21D;54116;53.518;49.398;2022-11-13T08:49:39;8.42;80.11
67186;HTU21D;54116;53.518;49.398;2022-11-13T08:52:05;8.39;78.88
67186;HTU21D;54116;53.518;49.398;2022-11-13T08:54:30;8.36;79.38
67186;HTU21D;54116;53.518;49.398;2022-11-13T08:56:56;8.33;81.01
67186;HTU21D;54116;53.518;49.398;2022-11-13T08:59:23;8.30;80.26
67186;HTU21D;54116;53.518;49.398;2022-11-13T09:01:49;8.20;81.23
67186;HTU21D;54116;53.518;49.398;2022-11-13T09:04:16;8.17;81.79
67186;HTU21D;54116;53.518;49.398;2022-11-13T09:06:42;8.14;82.09
67186;HTU21D;54116;53.518;49.398;2022-11-13T09:09:08;8.08;81.45
67186;HTU21D;54116;53.518;49.398;2022-11-13T09:11:34;8.05;81.83
67186;HTU21D;54116;53.518;49.398;2022-11-13T09:14:00;8.01;82.09
67186;HTU21D;54116;53.518;49.398;2022-11-13T09:16:26;7.97;82.23
67186;HTU21D;54116;53.518;49.398;2022-11-13T09:18:52;7.93;82.45
67186;HTU21D;54116;53.518;49.398;2022-11-13T09:21:18;7.91;82.76
67186;HTU21D;54116;53.518;49.398;2022-11-13T09:23:44;7.86;84.25
67186;HTU21D;54116;53.518;49.398;2022-11-13T09:26:10;7.82;83.90
67186;HTU21D;54116;53.518;49.398;2022-11-13T09:28:36;7.75;85.03
67186;HTU21D;54116;53.518;49.398;2022-11-13T09:31:06;7.69;85.81
67186;HTU21D;54116;53.518;49.398;2022-11-13T09:33:33;7.67;86.21
67186;HTU21D;54116;53.518;49.398;2022-11-13T09:35:59;7.62;85.77
67186;HTU21D;54116;53.518;49.398;2022-11-13T09:38:25;7.63;86.68
67186;HTU21D;54116;53.518;49.398;2022-11-13T09:41:08;7.60;86.71
67186;HTU21D;54116;53.518;49.398;2022-11-13T09:43:45;7.61;86.48
67186;HTU21D;54116;53.518;49.398;2022-11-13T09:51:53;7.50;88.15
67186;HTU21D;54116;53.518;49.398;2022-11-13T09:54:21;7.37;88.46
67186;HTU21D;54116;53.518;49.398;2022-11-13T10:02:20;7.40;89.02
67186;HTU21D;54116;53.518;49.398;2022-11-13T10:13:11;7.39;88.96
67186;HTU21D;54116;53.518;49.398;2022-11-13T10:15:39;7.27;90.22
67186;HTU21D;54116;53.518;49.398;2022-11-13T10:18:16;7.16;92.06
67186;HTU21D;54116;53.518;49.398;2022-11-13T10:20:48;7.00;95.45
67186;HTU21D;54116;53.518;49.398;2022-11-13T10:23:19;6.51;101.62
67186;HTU21D;54116;53.518;49.398;2022-11-13T10:25:46;6.09;106.85
67186;HTU21D;54116;53.518;49.398;2022-11-13T10:28:24;5.90;109.24
67186;HTU21D;54116;53.518;49.398;2022-11-13T10:30:51;5.83;107.69
67186;HTU21D;54116;53.518;49.398;2022-11-13T10:33:18;5.77;109.71
67186;HTU21D;54116;53.518;49.398;2022-11-13T10:41:12;5.62;112.39
67186;HTU21D;54116;53.518;49.398;2022-11-13T10:43:51;5.57;112.31
67186;HTU21D;54116;53.518;49.398;2022-11-13T10:46:20;5.61;112.84
67186;HTU21D;54116;53.518;49.398;2022-11-13T10:48:47;5.64;113.42
67186;HTU21D;54116;53.518;49.398;2022-11-13T10:51:26;5.66;111.50
67186;HTU21D;54116;53.518;49.398;2022-11-13T10:53:53;5.69;112.26
67186;HTU21D;54116;53.518;49.398;2022-11-13T10:56:30;5.71;113.12
67186;HTU21D;54116;53.518;49.398;2022-11-13T11:01:25;5.69;112.67
67186;HTU21D;54116;53.518;49.398;2022-11-13T11:03:51;5.69;113.18
67186;HTU21D;54116;53.518;49.398;2022-11-13T11:06:17;5.68;112.78
67186;HTU21D;54116;53.518;49.398;2022-11-13T11:08:43;5.67;113.35
67186;HTU21D;54116;53.518;49.398;2022-11-13T11:11:15;5.68;113.13
67186;HTU21D;54116;53.518;49.398;2022-11-13T11:14:29;5.63;112.97
67186;HTU21D;54116;53.518;49.398;2022-11-13T11:16:57;5.55;113.09
67186;HTU21D;54116;53.518;49.398;2022-11-13T11:19:27;5.50;113.06
67186;HTU21D;54116;53.518;49.398;2022-11-13T11:22:16;5.46;113.13
67186;HTU21D;54116;53.518;49.398;2022-11-13T11:24:55;5.46;112.86
67186;HTU21D;54116;53.518;49.398;2022-11-13T11:27:58;5.45;113.19
67186;HTU21D;54116;53.518;49.398;2022-11-13T11:30:30;5.42;113.40
67186;HTU21D;54116;53.518;49.398;2022-11-13T11:36:27;5.46;112.04
67186;HTU21D;54116;53.518;49.398;2022-11-13T11:41:50;5.48;112.58
67186;HTU21D;54116;53.518;49.398;2022-11-13T11:44:27;5.45;113.13
67186;HTU21D;54116;53.518;49.398;2022-11-13T11:46:54;5.43;112.99
67186;HTU21D;54116;53.518;49.398;2022-11-13T11:49:23;5.43;113.64
67186;HTU21D;54116;53.518;49.398;2022-11-13T11:54:47;5.35;112.77
67186;HTU21D;54116;53.518;49.398;2022-11-13T12:00:09;5.26;113.83
67186;HTU21D;54116;53.518;49.398;2022-11-13T12:06:20;5.20;113.38
67186;HTU21D;54116;53.518;49.398;2022-11-13T12:08:50;5.16;112.61
67186;HTU21D;54116;53.518;49.398;2022-11-13T12:11:28;5.18;113.76
67186;HTU21D;54116;53.518;49.398;2022-11-13T12:13:58;5.17;114.20
67186;HTU21D;54116;53.518;49.398;2022-11-13T12:16:55;5.15;114.56
67186;HTU21D;54116;53.518;49.398;2022-11-13T12:28:11;5.03;114.90
67186;HTU21D;54116;53.518;49.398;2022-11-13T12:33:44;4.94;115.22
67186;HTU21D;54116;53.518;49.398;2022-11-13T12:36:12;4.95;115.52
67186;HTU21D;54116;53.518;49.398;2022-11-13T12:46:17;5.00;115.36
67186;HTU21D;54116;53.518;49.398;2022-11-13T12:48:45;5.02;115.51
67186;HTU21D;54116;53.518;49.398;2022-11-13T12:51:16;5.04;115.42
67186;HTU21D;54116;53.518;49.398;2022-11-13T12:53:54;5.05;115.26
67186;HTU21D;54116;53.518;49.398;2022-11-13T12:59:03;5.05;115.23
67186;HTU21D;54116;53.518;49.398;2022-11-13T13:01:41;5.05;115.19
67186;HTU21D;54116;53.518;49.398;2022-11-13T13:10:18;5.05;114.43
67186;HTU21D;54116;53.518;49.398;2022-11-13T13:15:31;5.04;114.54
67186;HTU21D;54116;53.518;49.398;2022-11-13T13:23:28;5.02;114.54
67186;HTU21D;54116;53.518;49.398;2022-11-13T13:26:13;5.01;114.57
67186;HTU21D;54116;53.518;49.398;2022-11-13T13:28:44;5.01;114.34
67186;HTU21D;54116;53.518;49.398;2022-11-13T13:36:37;5.01;113.49
67186;HTU21D;54116;53.518;49.398;2022-11-13T13:42:15;4.98;114.17
67186;HTU21D;54116;53.518;49.398;2022-11-13T13:47:42;5.01;114.01
67186;HTU21D;54116;53.518;49.398;2022-11-13T13:50:19;5.00;114.52
67186;HTU21D;54116;53.518;49.398;2022-11-13T13:52:46;4.98;114.39
67186;HTU21D;54116;53.518;49.398;2022-11-13T13:55:20;4.94;114.22
67186;HTU21D;54116;53.518;49.398;2022-11-13T13:57:47;4.93;114.62
67186;HTU21D;54116;53.518;49.398;2022-11-13T14:00:22;4.94;114.68
67186;HTU21D;54116;53.518;49.398;2022-11-13T14:02:51;4.91;114.57
67186;HTU21D;54116;53.518;49.398;2022-11-13T14:05:29;4.93;114.69
67186;HTU21D;54116;53.518;49.398;2022-11-13T14:07:56;4.91;114.29
67186;HTU21D;54116;53.518;49.398;2022-11-13T14:10:25;4.89;113.49
67186;HTU21D;54116;53.518;49.398;2022-11-13T14:12:53;4.91;114.00
67186;HTU21D;54116;53.518;49.398;2022-11-13T14:15:26;4.90;114.54
67186;HTU21D;54116;53.518;49.398;2022-11-13T14:18:02;4.90;115.28
67186;HTU21D;54116;53.518;49.398;2022-11-13T14:20:37;4.88;115.63
67186;HTU21D;54116;53.518;49.398;2022-11-13T14:23:05;4.83;115.02
67186;HTU21D;54116;53.518;49.398;2022-11-13T14:25:31;4.83;114.93
67186;HTU21D;54116;53.518;49.398;2022-11-13T14:27:57;4.81;115.55
67186;HTU21D;54116;53.518;49.398;2022-11-13T14:30:25;4.81;115.12
67186;HTU21D;54116;53.518;49.398;2022-11-13T14:32:52;4.82;115.58
67186;HTU21D;54116;53.518;49.398;2022-11-13T14:35:23;4.81;116.42
67186;HTU21D;54116;53.518;49.398;2022-11-13T14:37:51;4.79;114.96
67186;HTU21D;54116;53.518;49.398;2022-11-13T14:40:28;4.82;115.51
67186;HTU21D;54116;53.518;49.398;2022-11-13T14:43:03;4.84;114.73
67186;HTU21D;54116;53.518;49.398;2022-11-13T14:45:31;4.86;114.52
67186;HTU21D;54116;53.518;49.398;2022-11-13T14:48:17;4.91;114.22
67186;HTU21D;54116;53.518;49.398;2022-11-13T14:50:53;4.92;113.35
67186;HTU21D;54116;53.518;49.398;2022-11-13T14:53:34;4.94;111.06
67186;HTU21D;54116;53.518;49.398;2022-11-13T14:56:06;5.00;109.26
67186;HTU21D;54116;53.518;49.398;2022-11-13T14:58:46;5.01;107.84
67186;HTU21D;54116;53.518;49.398;2022-11-13T15:01:19;5.10;104.31
67186;HTU21D;54116;53.518;49.398;2022-11-13T15:03:47;5.21;102.28
67186;HTU21D;54116;53.518;49.398;2022-11-13T15:08:45;5.26;99.99
67186;HTU21D;54116;53.518;49.398;2022-11-13T15:11:13;5.27;99.88
67186;HTU21D;54116;53.518;49.398;2022-11-13T15:13:40;5.27;100.11
67186;HTU21D;54116;53.518;49.398;2022-11-13T15:16:08;5.26;100.37
67186;HTU21D;54116;53.518;49.398;2022-11-13T15:18:36;5.26;99.89
67186;HTU21D;54116;53.518;49.398;2022-11-13T15:21:03;5.27;100.00
67186;HTU21D;54116;53.518;49.398;2022-11-13T15:23:29;5.27;99.97
67186;HTU21D;54116;53.518;49.398;2022-11-13T15:25:55;5.24;100.60
67186;HTU21D;54116;53.518;49.398;2022-11-13T15:28:22;5.27;99.76
67186;HTU21D;54116;53.518;49.398;2022-11-13T15:30:48;5.31;99.30
67186;HTU21D;54116;53.518;49.398;2022-11-13T15:33:15;5.33;98.42
67186;HTU21D;54116;53.518;49.398;2022-11-13T15:35:42;5.37;98.10
67186;HTU21D;54116;53.518;49.398;2022-11-13T15:38:09;5.34;97.74
67186;HTU21D;54116;53.518;49.398;2022-11-13T15:40:36;5.38;97.22
67186;HTU21D;54116;53.518;49.398;2022-11-13T15:43:03;5.35;97.31
67186;HTU21D;54116;53.518;49.398;2022-11-13T15:45:29;5.35;96.71
67186;HTU21D;54116;53.518;49.398;2022-11-13T15:47:55;5.35;96.77
67186;HTU21D;54116;53.518;49.398;2022-11-13T15:50:21;5.34;97.29
67186;HTU21D;54116;53.518;49.398;2022-11-13T15:52:50;5.31;97.00
67186;HTU21D;54116;53.518;49.398;2022-11-13T15:55:24;5.32;96.92
67186;HTU21D;54116;53.518;49.398;2022-11-13T15:57:52;5.34;98.26
67186;HTU21D;54116;53.518;49.398;2022-11-13T16:00:20;5.33;97.44
67186;HTU21D;54116;53.518;49.398;2022-11-13T16:02:50;5.33;97.20
67186;HTU21D;54116;53.518;49.398;2022-11-13T16:05:19;5.32;97.29
67186;HTU21D;54116;53.518;49.398;2022-11-13T16:07:48;5.30;96.78
67186;HTU21D;54116;53.518;49.398;2022-11-13T16:10:14;5.25;97.23
67186;HTU21D;54116;53.518;49.398;2022-11-13T16:12:41;5.28;97.23
67186;HTU21D;54116;53.518;49.398;2022-11-13T16:15:08;5.30;96.87
67186;HTU21D;54116;53.518;49.398;2022-11-13T16:17:39;5.24;97.84
67186;HTU21D;54116;53.518;49.398;2022-11-13T16:20:15;5.19;99.09
67186;HTU21D;54116;53.518;49.398;2022-11-13T16:22:42;5.10;100.52
67186;HTU21D;54116;53.518;49.398;2022-11-13T16:25:26;4.98;101.48
67186;HTU21D;54116;53.518;49.398;2022-11-13T16:27:52;4.94;102.44
67186;HTU21D;54116;53.518;49.398;2022-11-13T16:30:20;4.84;103.34
67186;HTU21D;54116;53.518;49.398;2022-11-13T16:32:48;4.76;102.95
67186;HTU21D;54116;53.518;49.398;2022-11-13T16:35:14;4.73;103.17
67186;HTU21D;54116;53.518;49.398;2022-11-13T16:37:41;4.75;101.93
67186;HTU21D;54116;53.518;49.398;2022-11-13T16:40:17;4.73;101.32
67186;HTU21D;54116;53.518;49.398;2022-11-13T16:42:44;4.73;100.32
67186;HTU21D;54116;53.518;49.398;2022-11-13T16:45:10;4.68;99.27
67186;HTU21D;54116;53.518;49.398;2022-11-13T16:47:36;4.66;98.75
67186;HTU21D;54116;53.518;49.398;2022-11-13T16:50:02;4.65;99.00
67186;HTU21D;54116;53.518;49.398;2022-11-13T16:52:28;4.66;97.31
67186;HTU21D;54116;53.518;49.398;2022-11-13T16:54:56;4.63;96.84
67186;HTU21D;54116;53.518;49.398;2022-11-13T16:57:22;4.65;97.37